Time;durP1;ratioP1;P1;durP2;ratioP2;P2;SDS_P1;SDS_P2;PMS_P1;PMS_P2;Temp;Humidity;BMP_temperature;BMP_pressure;BME280_temperature;BME280_humidity;BME280_pressure;Samples;Min_cycle;Max_cycle;Signal;HPM_P1;HPM_P2
2021/10/10 00:02:24;;;;;;;15.27;10.88;;;;;;;4.97;100.00;96756.03;5031782;28;24434;-76
2021/10/10 00:04:50;;;;;;;13.80;10.00;;;;;;;5.03;100.00;96761.03;5031591;28;24450;-76
2021/10/10 00:07:17;;;;;;;14.30;10.23;;;;;;;5.02;100.00;96755.06;5031837;28;24428;-76
2021/10/10 00:09:43;;;;;;;11.15;9.10;;;;;;;4.88;100.00;96756.28;5031929;28;24470;-76
2021/10/10 00:12:11;;;;;;;14.50;9.43;;;;;;;4.80;100.00;96754.75;5031404;28;24416;-76
2021/10/10 00:14:38;;;;;;;15.38;9.32;;;;;;;4.80;100.00;96753.91;5031193;28;24486;-76
2021/10/10 00:17:06;;;;;;;14.80;9.52;;;;;;;4.83;100.00;96758.97;5031663;28;24435;-76
2021/10/10 00:19:32;;;;;;;14.95;8.98;;;;;;;4.87;100.00;96760.59;5031717;28;24507;-76
2021/10/10 00:21:59;;;;;;;11.93;10.00;;;;;;;4.81;99.85;96756.44;5031715;28;24420;-76
2021/10/10 00:24:25;;;;;;;16.10;9.07;;;;;;;4.83;100.00;96758.97;5031375;28;24793;-76
2021/10/10 00:26:51;;;;;;;14.77;10.43;;;;;;;4.87;100.00;96750.31;5031192;28;24506;-76
2021/10/10 00:29:18;;;;;;;11.82;8.98;;;;;;;4.98;97.81;96748.31;5031138;28;24428;-76
2021/10/10 00:31:45;;;;;;;18.92;11.05;;;;;;;4.97;97.20;96758.59;5031575;28;24497;-76
2021/10/10 00:34:12;;;;;;;14.98;10.77;;;;;;;4.81;98.13;96751.28;5031174;28;24998;-76
2021/10/10 00:36:39;;;;;;;19.60;11.40;;;;;;;4.69;100.00;96748.19;5030904;28;24968;-76
2021/10/10 00:39:05;;;;;;;15.98;10.75;;;;;;;4.46;100.00;96747.00;5031219;28;24473;-76
2021/10/10 00:41:32;;;;;;;15.45;11.35;;;;;;;4.34;100.00;96749.88;5031191;28;24464;-76
2021/10/10 00:43:58;;;;;;;14.55;11.10;;;;;;;4.48;100.00;96747.81;5030930;28;24423;-76
2021/10/10 00:46:25;;;;;;;16.00;10.55;;;;;;;4.57;100.00;96746.75;5030877;28;24455;-76
2021/10/10 00:48:51;;;;;;;12.68;11.05;;;;;;;4.64;100.00;96745.75;5031231;28;24454;-76
2021/10/10 00:51:19;;;;;;;17.50;11.00;;;;;;;4.70;100.00;96742.16;5031407;28;24428;-76
2021/10/10 00:53:46;;;;;;;12.93;10.43;;;;;;;4.61;100.00;96736.38;5031008;28;24829;-76
2021/10/10 00:56:13;;;;;;;14.63;10.25;;;;;;;4.70;100.00;96739.59;5030939;28;24424;-76
2021/10/10 00:58:42;;;;;;;12.88;9.52;;;;;;;4.82;97.72;96739.28;5030844;28;24473;-76
2021/10/10 01:01:08;;;;;;;13.80;10.52;;;;;;;4.75;99.13;96735.22;5031207;28;24511;-76
2021/10/10 01:03:35;;;;;;;15.70;10.80;;;;;;;4.68;100.00;96736.25;5030988;28;24494;-76
2021/10/10 01:06:01;;;;;;;13.52;9.50;;;;;;;4.60;97.01;96731.31;5029542;28;24857;-76
2021/10/10 01:08:29;;;;;;;20.58;9.55;;;;;;;4.32;99.00;96746.47;5030904;28;24423;-76
2021/10/10 01:10:56;;;;;;;11.30;8.53;;;;;;;4.18;98.26;96733.13;5030514;28;24416;-76
2021/10/10 01:13:22;;;;;;;9.67;7.93;;;;;;;4.17;95.73;96739.13;5030550;28;24786;-76
2021/10/10 01:15:50;;;;;;;10.15;8.07;;;;;;;3.99;97.81;96735.25;5030323;28;24432;-76
2021/10/10 01:18:21;;;;;;;16.02;12.15;;;;;;;4.08;99.97;96729.94;5030652;28;24526;-76
2021/10/10 01:20:49;;;;;;;19.53;13.63;;;;;;;4.11;100.00;96728.13;5030710;28;24431;-76
2021/10/10 01:23:16;;;;;;;21.75;14.25;;;;;;;4.17;100.00;96726.31;5030500;28;24469;-76
2021/10/10 01:25:43;;;;;;;16.63;12.75;;;;;;;4.12;100.00;96727.25;5030232;28;24447;-76
2021/10/10 01:28:09;;;;;;;15.30;11.40;;;;;;;4.06;100.00;96724.81;5030893;28;24578;-76
2021/10/10 01:30:36;;;;;;;17.98;11.90;;;;;;;4.05;100.00;96722.31;5030576;28;24838;-76
2021/10/10 01:33:07;;;;;;;20.55;11.57;;;;;;;4.13;100.00;96728.09;5030595;28;24415;-76
2021/10/10 01:35:34;;;;;;;12.60;10.93;;;;;;;4.16;100.00;96727.19;5030265;28;24511;-76
2021/10/10 01:38:03;;;;;;;15.48;10.90;;;;;;;4.23;100.00;96715.94;5030510;28;24423;-76
2021/10/10 01:40:29;;;;;;;17.98;12.15;;;;;;;4.11;100.00;96717.84;5030481;28;24457;-75
2021/10/10 01:42:56;;;;;;;13.95;11.27;;;;;;;4.24;100.00;96717.59;5030495;28;24435;-76
2021/10/10 01:45:25;;;;;;;13.40;9.70;;;;;;;4.33;100.00;96717.38;5030098;28;24443;-76
2021/10/10 01:47:52;;;;;;;14.20;10.63;;;;;;;4.35;99.70;96718.19;5030337;28;24427;-76
2021/10/10 01:50:18;;;;;;;10.30;9.20;;;;;;;4.34;99.07;96713.97;5030364;28;24431;-76
2021/10/10 01:52:47;;;;;;;11.35;8.30;;;;;;;4.28;100.00;96717.50;5029971;28;24431;-76
2021/10/10 01:55:15;;;;;;;9.90;8.30;;;;;;;4.24;100.00;96710.75;5030086;28;24485;-76
2021/10/10 01:57:41;;;;;;;11.90;8.77;;;;;;;4.28;100.00;96711.53;5030070;28;24416;-76
2021/10/10 02:00:09;;;;;;;13.70;9.45;;;;;;;4.22;100.00;96711.66;5030340;28;24841;-76
2021/10/10 02:02:36;;;;;;;24.55;13.98;;;;;;;4.27;100.00;96710.69;5030156;28;24446;-76
2021/10/10 02:05:03;;;;;;;17.63;11.95;;;;;;;4.25;100.00;96711.59;5029813;28;24419;-76
2021/10/10 02:07:29;;;;;;;22.27;11.52;;;;;;;4.17;100.00;96704.06;5030170;28;24459;-76
2021/10/10 02:09:56;;;;;;;14.90;11.40;;;;;;;4.09;100.00;96709.38;5030321;28;24474;-76
2021/10/10 02:12:23;;;;;;;17.83;12.13;;;;;;;4.02;100.00;96709.53;5030171;28;24420;-76
2021/10/10 02:14:50;;;;;;;25.23;11.30;;;;;;;4.00;100.00;96712.13;5030676;28;24494;-76
2021/10/10 02:17:16;;;;;;;15.15;11.30;;;;;;;3.95;100.00;96708.84;5031829;28;24473;-76
2021/10/10 02:19:43;;;;;;;16.10;10.90;;;;;;;3.93;99.92;96705.47;5034118;28;24423;-76
2021/10/10 02:22:09;;;;;;;16.50;9.63;;;;;;;4.04;96.07;96700.97;5033733;28;24961;-76
2021/10/10 02:24:36;;;;;;;26.63;12.05;;;;;;;4.02;97.24;96705.25;5033726;28;24431;-76
2021/10/10 02:27:03;;;;;;;23.47;12.17;;;;;;;3.94;97.92;96702.03;5033793;28;24583;-76
2021/10/10 02:29:31;;;;;;;13.40;11.30;;;;;;;3.81;97.65;96700.59;5033829;28;24427;-76
2021/10/10 02:31:58;;;;;;;16.58;10.85;;;;;;;3.60;99.22;96700.19;5033756;28;24420;-76
2021/10/10 02:34:24;;;;;;;17.40;12.63;;;;;;;3.43;100.00;96701.38;5033441;28;24408;-76
2021/10/10 02:36:51;;;;;;;22.83;14.25;;;;;;;3.46;100.00;96711.56;5033556;28;24829;-76
2021/10/10 02:39:17;;;;;;;18.58;13.30;;;;;;;3.47;100.00;96703.00;5033398;28;24969;-76
2021/10/10 02:41:44;;;;;;;22.45;13.30;;;;;;;3.40;100.00;96703.13;5033473;28;25162;-76
2021/10/10 02:44:11;;;;;;;25.75;13.73;;;;;;;3.48;100.00;96704.69;5033547;28;24428;-76
2021/10/10 02:46:38;;;;;;;18.75;13.57;;;;;;;3.49;100.00;96704.69;5033000;28;25072;-76
2021/10/10 02:49:05;;;;;;;13.68;12.25;;;;;;;3.47;100.00;96706.41;5033354;28;24419;-76
2021/10/10 02:51:32;;;;;;;14.10;11.68;;;;;;;3.53;100.00;96713.16;5033488;28;24466;-76
2021/10/10 02:53:58;;;;;;;13.02;10.60;;;;;;;3.49;100.00;96707.25;5033436;28;24431;-76
2021/10/10 02:56:25;;;;;;;9.30;8.50;;;;;;;3.31;100.00;96705.88;5032963;28;24431;-76
2021/10/10 02:58:51;;;;;;;11.63;9.82;;;;;;;3.42;100.00;96710.78;5033285;28;24785;-76
2021/10/10 03:01:18;;;;;;;14.98;10.70;;;;;;;3.56;100.00;96703.69;5033090;28;24416;-76
2021/10/10 03:03:46;;;;;;;12.93;10.35;;;;;;;3.70;100.00;96700.81;5033318;28;24828;-76
2021/10/10 03:06:12;;;;;;;13.03;10.00;;;;;;;3.73;99.24;96705.03;5032746;28;24460;-76
2021/10/10 03:08:39;;;;;;;16.93;11.13;;;;;;;3.61;98.75;96699.28;5033231;28;24428;-76
2021/10/10 03:11:06;;;;;;;17.33;11.52;;;;;;;3.30;100.00;96699.06;5033073;28;24423;-76
2021/10/10 03:13:33;;;;;;;14.35;11.23;;;;;;;3.18;100.00;96706.97;5033094;28;24789;-76
2021/10/10 03:15:59;;;;;;;13.50;10.77;;;;;;;3.07;100.00;96701.19;5032804;28;24477;-75
2021/10/10 03:18:27;;;;;;;11.57;10.25;;;;;;;2.95;100.00;96704.00;5033275;28;24435;-75
2021/10/10 03:20:55;;;;;;;10.93;9.70;;;;;;;2.97;100.00;96708.22;5033258;28;24423;-75
2021/10/10 03:23:21;;;;;;;13.38;10.50;;;;;;;3.14;100.00;96703.63;5033049;28;24412;-75
2021/10/10 03:25:48;;;;;;;9.73;8.80;;;;;;;3.25;100.00;96708.53;5031335;28;24440;-75
2021/10/10 03:28:14;;;;;;;10.88;9.63;;;;;;;3.28;100.00;96697.41;5032154;28;24965;-75
2021/10/10 03:30:41;;;;;;;15.27;9.60;;;;;;;3.31;100.00;96708.44;5032188;28;24969;-75
2021/10/10 03:33:08;;;;;;;15.60;10.00;;;;;;;3.32;100.00;96706.72;5032387;28;25031;-76
2021/10/10 03:35:35;;;;;;;26.67;10.02;;;;;;;3.34;100.00;96703.25;5032076;28;24419;-76
2021/10/10 03:38:03;;;;;;;23.70;11.23;;;;;;;3.26;100.00;96694.84;5032384;28;24415;-75
2021/10/10 03:40:30;;;;;;;24.02;9.43;;;;;;;3.31;100.00;96695.63;5032197;28;24976;-75
2021/10/10 03:42:56;;;;;;;27.73;8.30;;;;;;;3.25;100.00;96688.06;5032260;28;24894;-75
2021/10/10 03:45:22;;;;;;;50.40;8.75;;;;;;;3.19;100.00;96685.63;5031988;28;24442;-75
2021/10/10 03:47:49;;;;;;;23.23;7.45;;;;;;;2.98;100.00;96683.47;5032146;28;24517;-75
2021/10/10 03:50:15;;;;;;;51.47;7.15;;;;;;;2.96;100.00;96687.75;5032314;28;24428;-75
2021/10/10 03:52:42;;;;;;;8.35;7.18;;;;;;;2.84;100.00;96692.22;5032256;28;24796;-75
2021/10/10 03:55:28;;;;;;;17.23;7.22;;;;;;;2.45;100.00;96688.66;5031927;28;24530;-75
2021/10/10 03:57:55;;;;;;;16.40;7.80;;;;;;;2.17;100.00;96683.94;5032067;28;24436;-75
2021/10/10 04:00:22;;;;;;;14.35;7.07;;;;;;;1.98;100.00;96691.91;5032172;28;24420;-76
2021/10/10 04:02:49;;;;;;;7.83;5.57;;;;;;;1.95;100.00;96690.25;5031859;28;24531;-76
2021/10/10 04:05:20;;;;;;;9.93;6.18;;;;;;;2.21;100.00;96683.91;5031617;28;24416;-76
2021/10/10 04:07:47;;;;;;;8.18;5.85;;;;;;;2.43;100.00;96686.09;5031650;28;24492;-76
2021/10/10 04:10:15;;;;;;;9.35;6.75;;;;;;;2.61;100.00;96684.13;5031677;28;24961;-75
2021/10/10 04:12:42;;;;;;;15.93;7.70;;;;;;;2.64;100.00;96695.13;5031854;28;24429;-76
2021/10/10 04:15:09;;;;;;;16.55;8.38;;;;;;;2.70;100.00;96683.94;5031549;28;24477;-76
2021/10/10 04:17:36;;;;;;;11.23;8.02;;;;;;;2.66;100.00;96683.16;5031637;28;24435;-76
2021/10/10 04:20:03;;;;;;;7.93;6.97;;;;;;;2.67;100.00;96684.88;5031681;28;24420;-76
2021/10/10 04:22:29;;;;;;;11.65;6.93;;;;;;;2.69;100.00;96684.81;5031477;28;24774;-76
2021/10/10 04:24:56;;;;;;;9.55;6.68;;;;;;;2.66;100.00;96685.72;5031156;28;24427;-76
2021/10/10 04:27:24;;;;;;;7.97;6.35;;;;;;;2.65;100.00;96686.59;5031360;28;24463;-76
2021/10/10 04:29:51;;;;;;;7.95;6.72;;;;;;;2.61;100.00;96695.19;5031280;28;24486;-76
2021/10/10 04:32:17;;;;;;;12.77;6.53;;;;;;;2.64;100.00;96691.75;5031457;28;24434;-76
2021/10/10 04:34:43;;;;;;;7.68;6.70;;;;;;;2.59;100.00;96696.06;5031033;28;24982;-76
2021/10/10 04:37:10;;;;;;;6.60;5.83;;;;;;;2.61;100.00;96687.50;5031109;28;24907;-75
2021/10/10 04:39:36;;;;;;;9.37;7.17;;;;;;;2.68;100.00;96685.69;5031255;28;24875;-77
2021/10/10 04:42:05;;;;;;;7.22;6.53;;;;;;;2.54;100.00;96688.47;5031073;28;24474;-76
2021/10/10 04:44:35;;;;;;;12.48;7.22;;;;;;;2.44;100.00;96681.81;5030998;28;24431;-76
2021/10/10 04:47:02;;;;;;;41.22;6.95;;;;;;;2.32;100.00;96687.13;5031107;28;24551;-75
2021/10/10 04:49:28;;;;;;;10.63;5.68;;;;;;;2.42;100.00;96689.53;5031096;28;24780;-75
2021/10/10 04:51:55;;;;;;;10.15;6.63;;;;;;;2.51;100.00;96685.97;5030943;28;24486;-76
2021/10/10 04:54:21;;;;;;;67.18;7.13;;;;;;;2.45;100.00;96688.66;5031240;28;24416;-76
2021/10/10 04:56:47;;;;;;;188.25;7.35;;;;;;;2.22;100.00;96685.59;5030821;28;24431;-76
2021/10/10 04:59:14;;;;;;;133.98;7.35;;;;;;;2.08;100.00;96690.94;5031115;28;24969;-76
2021/10/10 05:01:42;;;;;;;63.75;5.38;;;;;;;2.36;100.00;96688.78;5031190;28;24412;-76
2021/10/10 05:04:08;;;;;;;64.97;5.28;;;;;;;2.50;100.00;96689.41;5030830;28;24461;-75
2021/10/10 05:06:34;;;;;;;162.27;6.55;;;;;;;2.45;100.00;96685.22;5030523;28;24487;-75
2021/10/10 05:09:01;;;;;;;114.00;5.30;;;;;;;2.40;100.00;96687.84;5030863;28;24431;-75
2021/10/10 05:11:27;;;;;;;98.70;5.55;;;;;;;2.40;100.00;96686.13;5030952;28;24423;-75
2021/10/10 05:13:54;;;;;;;122.35;5.60;;;;;;;2.29;100.00;96685.47;5030743;28;25011;-76
2021/10/10 05:16:20;;;;;;;77.70;4.72;;;;;;;2.21;100.00;96683.91;5030988;28;24420;-76
2021/10/10 05:18:48;;;;;;;22.30;3.97;;;;;;;2.38;100.00;96680.22;5031914;28;24481;-76
2021/10/10 05:21:15;;;;;;;40.35;6.00;;;;;;;2.61;100.00;96687.50;5031972;28;24423;-75
2021/10/10 05:23:41;;;;;;;25.73;7.13;;;;;;;2.68;100.00;96685.69;5031180;28;24483;-76
2021/10/10 05:26:08;;;;;;;21.00;7.05;;;;;;;2.56;100.00;96689.31;5030400;28;24428;-76
2021/10/10 05:28:34;;;;;;;33.28;6.80;;;;;;;2.48;100.00;96691.13;5030405;28;24440;-76
2021/10/10 05:31:01;;;;;;;16.58;6.88;;;;;;;2.48;100.00;96692.84;5030653;28;24427;-76
2021/10/10 05:33:27;;;;;;;14.27;7.07;;;;;;;2.57;100.00;96691.00;5030620;28;24498;-76
2021/10/10 05:35:55;;;;;;;16.17;7.50;;;;;;;2.53;100.00;96694.47;5030400;28;25895;-76
2021/10/10 05:38:22;;;;;;;14.55;6.90;;;;;;;2.58;100.00;96691.84;5030782;28;24415;-75
2021/10/10 05:40:48;;;;;;;17.98;6.43;;;;;;;2.59;100.00;96691.78;5030605;28;24442;-75
2021/10/10 05:43:15;;;;;;;13.32;6.05;;;;;;;2.53;100.00;96686.81;5030803;28;24991;-75
2021/10/10 05:45:41;;;;;;;15.27;5.55;;;;;;;2.51;100.00;96682.56;5027861;28;24809;-75
2021/10/10 05:48:07;;;;;;;24.15;6.30;;;;;;;2.34;100.00;96686.25;5030543;28;24857;-76
2021/10/10 05:50:34;;;;;;;12.27;5.60;;;;;;;2.37;100.00;96686.22;5030523;28;24498;-76
2021/10/10 05:53:07;;;;;;;24.70;5.55;;;;;;;2.25;100.00;96686.38;5032632;28;24416;-76
2021/10/10 05:55:34;;;;;;;13.13;5.15;;;;;;;2.13;100.00;96687.41;5034225;28;24446;-76
2021/10/10 05:58:02;;;;;;;17.88;4.72;;;;;;;2.06;100.00;96690.94;5034025;28;25012;-77
2021/10/10 06:00:29;;;;;;;8.30;5.85;;;;;;;1.91;100.00;96702.22;5034473;28;24526;-77
2021/10/10 06:02:56;;;;;;;11.17;6.03;;;;;;;1.92;100.00;96703.06;5034601;28;24523;-77
2021/10/10 06:05:22;;;;;;;17.77;5.88;;;;;;;1.96;100.00;96699.59;5036531;28;24546;-77
2021/10/10 06:07:48;;;;;;;28.70;5.95;;;;;;;2.11;100.00;96703.63;5030196;28;24456;-75
2021/10/10 06:10:16;;;;;;;7.53;4.47;;;;;;;2.23;100.00;96703.47;5037656;28;24463;-76
2021/10/10 06:12:43;;;;;;;15.68;4.63;;;;;;;2.32;100.00;96708.44;5034402;28;24459;-77
2021/10/10 06:15:10;;;;;;;7.53;4.20;;;;;;;2.37;100.00;96706.66;5022806;28;24805;-76
2021/10/10 06:17:37;;;;;;;14.50;4.13;;;;;;;2.38;100.00;96715.19;5034183;28;24427;-76
2021/10/10 06:20:05;;;;;;;13.98;4.00;;;;;;;2.31;100.00;96711.88;5034053;28;24431;-75
2021/10/10 06:22:32;;;;;;;25.73;4.45;;;;;;;2.30;100.00;96717.84;5033920;28;24420;-76
2021/10/10 06:24:59;;;;;;;16.52;4.55;;;;;;;2.39;100.00;96714.31;5034267;28;25185;-76
2021/10/10 06:27:26;;;;;;;11.43;4.27;;;;;;;2.45;100.00;96721.00;5053844;28;24505;-76
2021/10/10 06:29:53;;;;;;;14.43;4.55;;;;;;;2.50;100.00;96717.53;5053663;28;24419;-76
2021/10/10 06:32:19;;;;;;;10.32;4.50;;;;;;;2.46;100.00;96723.56;5053971;28;24411;-76
2021/10/10 06:34:46;;;;;;;8.13;4.25;;;;;;;2.62;100.00;96719.03;5053358;28;24431;-76
2021/10/10 06:37:12;;;;;;;11.55;4.45;;;;;;;2.67;100.00;96719.84;5053440;28;24956;-76
2021/10/10 06:39:38;;;;;;;11.63;5.07;;;;;;;2.64;100.00;96718.16;5053475;28;24477;-76
2021/10/10 06:42:06;;;;;;;16.05;5.32;;;;;;;2.61;100.00;96723.31;5053885;28;24415;-76
2021/10/10 06:44:35;;;;;;;8.35;4.70;;;;;;;2.80;100.00;96725.56;5053165;28;24940;-76
2021/10/10 06:47:01;;;;;;;10.88;5.55;;;;;;;2.94;100.00;96721.06;5053603;28;24454;-77
2021/10/10 06:49:28;;;;;;;12.43;5.78;;;;;;;3.13;100.00;96719.84;5053463;28;25067;-77
2021/10/10 06:51:55;;;;;;;11.05;5.40;;;;;;;2.92;100.00;96715.94;5053650;28;24439;-77
2021/10/10 06:54:21;;;;;;;12.65;5.80;;;;;;;2.94;100.00;96718.50;5053536;28;24415;-76
2021/10/10 06:56:48;;;;;;;20.90;5.47;;;;;;;2.98;100.00;96721.84;5052391;28;24517;-76
2021/10/10 06:59:14;;;;;;;10.98;5.88;;;;;;;3.10;100.00;96727.59;5042963;28;24423;-76
2021/10/10 07:01:42;;;;;;;9.98;5.97;;;;;;;3.19;100.00;96729.16;5053030;28;24422;-72
2021/10/10 07:04:09;;;;;;;12.20;5.82;;;;;;;3.30;100.00;96727.25;5036057;28;24489;-76
2021/10/10 07:06:35;;;;;;;15.90;6.07;;;;;;;3.42;100.00;96727.88;5033168;28;24458;-76
2021/10/10 07:09:01;;;;;;;11.52;6.13;;;;;;;3.50;100.00;96737.09;5032978;28;24447;-75
2021/10/10 07:11:28;;;;;;;16.55;6.40;;;;;;;3.66;100.00;96734.22;5032717;28;24435;-75
2021/10/10 07:13:54;;;;;;;6.82;6.13;;;;;;;3.85;100.00;96732.97;5032681;28;24957;-75
2021/10/10 07:16:25;;;;;;;6.43;5.82;;;;;;;4.06;100.00;96731.66;5049464;28;24435;-75
2021/10/10 07:18:55;;;;;;;5.82;5.25;;;;;;;4.29;100.00;96731.16;5052657;28;24473;-76
2021/10/10 07:21:26;;;;;;;5.80;5.30;;;;;;;4.33;100.00;96737.91;5047719;28;24443;-76
2021/10/10 07:24:51;;;;;;;5.63;5.13;;;;;;;4.70;100.00;96731.91;5051636;28;24513;-76
2021/10/10 07:26:43;;;;;;;6.18;5.65;;;;;;;4.94;100.00;96728.75;5051892;28;24442;-76
2021/10/10 07:29:10;;;;;;;6.77;5.37;;;;;;;5.21;100.00;96732.31;5052272;28;24631;-75
2021/10/10 07:31:36;;;;;;;5.97;5.43;;;;;;;5.64;100.00;96735.47;5052422;28;24500;-76
2021/10/10 07:34:04;;;;;;;7.77;6.40;;;;;;;5.47;100.00;96733.34;5052186;28;25024;-76
2021/10/10 07:36:30;;;;;;;8.93;7.20;;;;;;;5.41;100.00;96736.06;5051560;28;24435;-76
2021/10/10 07:38:57;;;;;;;19.70;7.05;;;;;;;5.10;100.00;96732.59;5052305;28;24419;-76
2021/10/10 07:41:23;;;;;;;16.05;6.35;;;;;;;4.93;100.00;96733.91;5052208;28;24426;-76
2021/10/10 07:43:50;;;;;;;11.57;7.35;;;;;;;4.83;100.00;96736.72;5052103;28;24423;-76
2021/10/10 07:46:19;;;;;;;8.60;7.13;;;;;;;4.83;100.00;96733.31;5051756;28;24797;-76
2021/10/10 07:48:47;;;;;;;9.60;6.93;;;;;;;5.44;100.00;96746.28;5051870;28;24457;-76
2021/10/10 07:51:15;;;;;;;7.85;7.07;;;;;;;5.88;100.00;96747.63;5053617;28;24441;-76
2021/10/10 07:53:41;;;;;;;10.23;7.32;;;;;;;6.30;100.00;96742.13;5052000;28;24423;-76
2021/10/10 07:56:08;;;;;;;8.20;7.40;;;;;;;6.55;96.26;96743.03;5051559;28;24488;-76
2021/10/10 07:58:34;;;;;;;10.85;7.97;;;;;;;6.72;99.64;96741.69;5052194;28;24800;-76
2021/10/10 08:01:01;;;;;;;10.25;7.82;;;;;;;6.74;96.66;96745.03;5051836;28;24484;-76
2021/10/10 08:03:28;;;;;;;7.82;7.05;;;;;;;6.72;97.49;96741.69;5051492;28;24423;-76
2021/10/10 08:05:54;;;;;;;9.07;7.85;;;;;;;7.16;98.65;96739.41;5051579;28;24840;-76
2021/10/10 08:08:22;;;;;;;9.85;7.90;;;;;;;7.52;96.49;96739.84;5051679;28;24565;-76
2021/10/10 08:10:49;;;;;;;9.32;7.40;;;;;;;7.67;93.91;96736.72;5047080;28;24490;-76
2021/10/10 08:13:15;;;;;;;8.13;7.30;;;;;;;7.47;93.05;96740.00;5043859;28;24443;-76
2021/10/10 08:15:42;;;;;;;9.20;7.30;;;;;;;7.27;95.14;96745.84;5050558;28;24863;-75
2021/10/10 08:18:08;;;;;;;9.77;7.63;;;;;;;7.14;96.69;96741.16;5051016;28;24423;-76
2021/10/10 08:20:35;;;;;;;8.32;7.50;;;;;;;7.22;97.89;96736.59;5055411;28;24508;-75
2021/10/10 08:23:01;;;;;;;10.00;8.38;;;;;;;7.12;98.13;96743.81;5055173;28;24427;-76
2021/10/10 08:25:32;;;;;;;10.35;9.25;;;;;;;7.27;99.93;96734.72;5054782;28;25117;-75
2021/10/10 08:27:59;;;;;;;10.43;9.30;;;;;;;7.43;100.00;96742.75;5038216;28;24559;-75
2021/10/10 08:30:26;;;;;;;14.33;9.57;;;;;;;7.90;100.00;96740.22;5051326;28;24485;-75
2021/10/10 08:32:53;;;;;;;11.45;8.15;;;;;;;8.56;99.37;96741.16;5051646;28;24492;-75
2021/10/10 08:35:20;;;;;;;10.93;8.95;;;;;;;9.05;92.41;96736.63;5051442;28;24424;-76
2021/10/10 08:37:47;;;;;;;11.90;9.32;;;;;;;8.78;90.42;96740.31;5051264;28;25098;-76
2021/10/10 08:40:15;;;;;;;12.00;9.38;;;;;;;8.88;88.43;96739.03;5051558;28;24477;-76
2021/10/10 08:42:46;;;;;;;12.88;9.43;;;;;;;8.69;90.22;96741.53;5051632;28;24824;-76
2021/10/10 08:45:16;;;;;;;10.45;9.38;;;;;;;8.85;90.68;96736.56;5051261;28;20747;-75
2021/10/10 08:47:43;;;;;;;12.93;9.65;;;;;;;8.78;90.88;96746.31;5051287;28;24578;-76
2021/10/10 08:50:15;;;;;;;11.63;9.27;;;;;;;8.93;90.59;96748.28;5051520;28;24426;-75
2021/10/10 08:52:43;;;;;;;21.33;9.57;;;;;;;8.94;90.05;96742.22;5051075;28;24797;-76
2021/10/10 08:55:10;;;;;;;12.02;10.07;;;;;;;9.12;90.42;96740.63;5051131;28;24498;-76
2021/10/10 08:57:37;;;;;;;15.80;10.40;;;;;;;9.10;91.92;96733.84;5050770;28;25015;-76
2021/10/10 09:00:10;;;;;;;13.13;10.48;;;;;;;9.18;92.45;96737.78;5051303;28;24442;-76
2021/10/10 09:02:39;;;;;;;16.23;9.37;;;;;;;9.79;93.10;96742.06;5051323;28;20641;-75
2021/10/10 09:05:06;;;;;;;14.02;10.82;;;;;;;10.16;87.10;96737.84;5050808;28;20804;-76
2021/10/10 09:07:33;;;;;;;15.18;10.68;;;;;;;10.10;85.81;96735.50;5051234;28;20763;-76
2021/10/10 09:10:16;;;;;;;12.55;9.85;;;;;;;10.32;85.15;96736.25;5051317;28;20834;-76
2021/10/10 09:12:42;;;;;;;22.40;9.85;;;;;;;10.10;85.73;96741.53;5031192;28;20673;-76
2021/10/10 09:15:12;;;;;;;13.13;9.98;;;;;;;10.26;85.73;96740.84;5047907;28;20837;-75
2021/10/10 09:17:39;;;;;;;16.60;11.05;;;;;;;10.00;83.81;96742.00;5051045;28;20809;-76
2021/10/10 09:20:07;;;;;;;13.38;10.45;;;;;;;10.14;83.35;96743.06;5050594;28;21269;-76
2021/10/10 09:22:37;;;;;;;15.52;10.45;;;;;;;10.36;84.61;96753.31;5050498;28;21333;-76
2021/10/10 09:25:11;;;;;;;12.57;9.40;;;;;;;10.44;81.23;96747.78;5050712;28;20759;-76
2021/10/10 09:27:37;;;;;;;14.98;10.80;;;;;;;10.66;81.40;96742.44;5044330;28;21512;-76
2021/10/10 09:30:05;;;;;;;20.38;11.32;;;;;;;10.91;81.76;96747.28;5049913;28;25071;-76
2021/10/10 09:32:33;;;;;;;15.60;10.38;;;;;;;11.06;79.01;96740.50;5050123;28;20867;-76
2021/10/10 09:34:59;;;;;;;15.65;10.25;;;;;;;10.90;77.05;96742.97;5050505;28;20797;-76
2021/10/10 09:37:37;;;;;;;16.85;10.00;;;;;;;10.83;78.16;96739.03;5050617;28;24553;-76
2021/10/10 09:40:09;;;;;;;15.88;9.73;;;;;;;11.42;77.35;96742.16;5050703;28;24523;-76
2021/10/10 09:42:38;;;;;;;12.48;9.57;;;;;;;11.54;74.37;96742.41;5050087;28;20770;-76
2021/10/10 09:45:20;;;;;;;11.52;9.23;;;;;;;11.98;72.78;96738.44;5050214;28;24478;-76
2021/10/10 09:47:51;;;;;;;15.65;9.40;;;;;;;11.98;71.60;96736.69;5050579;28;24634;-76
2021/10/10 09:50:18;;;;;;;13.80;9.68;;;;;;;12.23;71.33;96741.38;5050437;28;24429;-76
2021/10/10 09:52:45;;;;;;;22.75;9.95;;;;;;;12.23;70.25;96740.53;5050294;28;24432;-77
2021/10/10 09:55:12;;;;;;;15.17;10.10;;;;;;;12.46;69.36;96728.91;5050396;28;24863;-76
2021/10/10 09:57:46;;;;;;;13.98;9.10;;;;;;;12.57;66.67;96729.19;5050299;28;20897;-76
2021/10/10 10:00:19;;;;;;;14.18;9.45;;;;;;;12.86;68.21;96732.72;5050514;28;24503;-76
2021/10/10 10:02:46;;;;;;;13.63;8.57;;;;;;;12.83;63.17;96727.72;5050207;28;25016;-76
2021/10/10 10:05:24;;;;;;;14.23;7.22;;;;;;;13.31;57.12;96728.44;5049941;28;24998;-76
2021/10/10 10:07:52;;;;;;;12.45;6.60;;;;;;;13.60;58.25;96733.69;5050363;28;24427;-76
2021/10/10 10:10:19;;;;;;;10.88;6.65;;;;;;;13.57;58.05;96729.50;5050171;28;24857;-76
2021/10/10 10:12:47;;;;;;;9.68;6.75;;;;;;;13.74;57.30;96736.31;5050487;28;24469;-76
2021/10/10 10:15:14;;;;;;;8.53;6.80;;;;;;;13.77;56.97;96733.53;5050162;28;24824;-76
2021/10/10 10:17:41;;;;;;;8.73;6.75;;;;;;;13.71;56.69;96734.72;5050284;28;24523;-76
2021/10/10 10:20:09;;;;;;;14.13;8.23;;;;;;;13.74;56.03;96734.53;5050396;28;24434;-76
2021/10/10 10:22:37;;;;;;;13.57;7.47;;;;;;;13.55;56.11;96734.81;5050370;28;24427;-76
2021/10/10 10:25:06;;;;;;;10.52;6.90;;;;;;;13.60;57.47;96733.69;5049813;28;24983;-76
2021/10/10 10:27:33;;;;;;;12.60;7.30;;;;;;;13.66;58.21;96733.34;5049865;28;24446;-76
2021/10/10 10:30:00;;;;;;;12.27;6.95;;;;;;;13.34;56.33;96730.84;5049923;28;24855;-76
2021/10/10 10:32:30;;;;;;;14.80;7.85;;;;;;;13.16;55.97;96734.50;5050115;28;24415;-76
2021/10/10 10:34:59;;;;;;;13.48;7.75;;;;;;;13.05;56.84;96735.97;5050082;28;20704;-75
2021/10/10 10:37:49;;;;;;;11.73;7.55;;;;;;;12.96;58.11;96739.09;5050325;28;20765;-75
2021/10/10 10:40:33;;;;;;;11.07;7.30;;;;;;;12.94;57.58;96738.34;5054137;28;20822;-76
2021/10/10 10:43:03;;;;;;;14.07;8.02;;;;;;;12.79;57.75;96741.78;5053981;28;20721;-75
2021/10/10 10:45:33;;;;;;;10.77;7.57;;;;;;;12.79;65.42;96734.00;5053861;28;20721;-75
2021/10/10 10:48:01;;;;;;;10.80;7.88;;;;;;;12.90;60.55;96735.97;5053636;28;20992;-75
2021/10/10 10:50:29;;;;;;;18.83;7.75;;;;;;;12.99;60.33;96728.50;5053719;28;20803;-76
2021/10/10 10:52:59;;;;;;;13.43;8.00;;;;;;;13.05;57.73;96725.56;5053599;28;20854;-75
2021/10/10 10:55:27;;;;;;;10.95;7.75;;;;;;;13.21;60.92;96722.09;5053263;28;20807;-75
2021/10/10 10:57:54;;;;;;;12.17;8.77;;;;;;;13.27;59.07;96725.19;5039263;28;24914;-76
2021/10/10 11:00:24;;;;;;;11.88;8.85;;;;;;;13.04;59.80;96723.03;5033568;28;24423;-75
2021/10/10 11:03:03;;;;;;;16.50;8.80;;;;;;;13.06;60.05;96716.84;5033441;28;24428;-75
2021/10/10 11:05:49;;;;;;;11.35;8.40;;;;;;;13.11;62.93;96710.53;5033280;28;24408;-75
2021/10/10 11:08:41;;;;;;;13.82;8.68;;;;;;;13.17;63.34;96710.19;5033407;28;24427;-75
2021/10/10 11:11:15;;;;;;;13.30;8.80;;;;;;;13.27;61.54;96716.53;5033102;28;24415;-75
2021/10/10 11:13:42;;;;;;;15.50;8.40;;;;;;;13.16;59.95;96713.69;5032996;28;24808;-75
2021/10/10 11:16:11;;;;;;;10.10;7.93;;;;;;;13.24;62.08;96706.34;5032940;28;24435;-75
2021/10/10 11:18:44;;;;;;;29.47;8.27;;;;;;;13.10;62.26;96707.09;5033104;28;24492;-75
2021/10/10 11:21:13;;;;;;;12.82;9.20;;;;;;;13.21;59.42;96712.50;5033157;28;24426;-75
2021/10/10 11:23:41;;;;;;;13.75;8.65;;;;;;;12.92;57.10;96710.75;5065114;28;24925;-75
2021/10/10 11:26:10;;;;;;;13.07;8.20;;;;;;;13.18;59.58;96710.09;5073245;28;24431;-75
2021/10/10 11:28:39;;;;;;;12.80;8.35;;;;;;;13.31;60.39;96716.28;5054233;28;25026;-75
2021/10/10 11:31:10;;;;;;;14.55;8.25;;;;;;;13.35;63.80;96708.28;5053019;28;24427;-75